sensor_id;sensor_type;location;lat;lon;timestamp;temperature;humidity
1063;DHT22;520;50.932;6.962;2023-05-10T00:01:14;15.80;99.90
1063;DHT22;520;50.932;6.962;2023-05-10T00:03:59;15.80;99.90
1063;DHT22;520;50.932;6.962;2023-05-10T00:06:26;15.80;99.90
1063;DHT22;520;50.932;6.962;2023-05-10T00:08:57;15.80;99.90
1063;DHT22;520;50.932;6.962;2023-05-10T00:11:25;15.80;99.90
1063;DHT22;520;50.932;6.962;2023-05-10T00:14:00;15.80;99.90
1063;DHT22;520;50.932;6.962;2023-05-10T00:16:27;15.80;99.90
1063;DHT22;520;50.932;6.962;2023-05-10T00:19:00;15.80;99.90
1063;DHT22;520;50.932;6.962;2023-05-10T00:21:27;15.80;99.90
1063;DHT22;520;50.932;6.962;2023-05-10T00:24:00;15.80;99.90
1063;DHT22;520;50.932;6.962;2023-05-10T00:26:30;15.70;99.90
1063;DHT22;520;50.932;6.962;2023-05-10T00:29:02;15.70;99.90
1063;DHT22;520;50.932;6.962;2023-05-10T00:31:30;15.70;99.90
1063;DHT22;520;50.932;6.962;2023-05-10T00:34:02;15.80;99.90
1063;DHT22;520;50.932;6.962;2023-05-10T00:36:31;15.80;99.90
1063;DHT22;520;50.932;6.962;2023-05-10T00:39:04;15.80;99.90
1063;DHT22;520;50.932;6.962;2023-05-10T00:41:42;15.80;99.90
1063;DHT22;520;50.932;6.962;2023-05-10T00:44:17;16.10;99.90
1063;DHT22;520;50.932;6.962;2023-05-10T00:46:53;16.10;99.90
1063;DHT22;520;50.932;6.962;2023-05-10T00:49:21;16.00;99.90
1063;DHT22;520;50.932;6.962;2023-05-10T00:51:57;16.00;99.90
1063;DHT22;520;50.932;6.962;2023-05-10T00:54:33;15.90;99.90
1063;DHT22;520;50.932;6.962;2023-05-10T00:57:09;15.80;99.90
1063;DHT22;520;50.932;6.962;2023-05-10T00:59:42;15.80;99.90
1063;DHT22;520;50.932;6.962;2023-05-10T01:02:11;15.80;99.90
1063;DHT22;520;50.932;6.962;2023-05-10T01:04:49;15.80;99.90
1063;DHT22;520;50.932;6.962;2023-05-10T01:07:21;15.90;99.90
1063;DHT22;520;50.932;6.962;2023-05-10T01:09:56;15.80;99.90
1063;DHT22;520;50.932;6.962;2023-05-10T01:12:26;15.70;99.90
1063;DHT22;520;50.932;6.962;2023-05-10T01:15:02;15.80;99.90
1063;DHT22;520;50.932;6.962;2023-05-10T01:17:33;15.80;99.90
1063;DHT22;520;50.932;6.962;2023-05-10T01:20:02;15.80;99.90
1063;DHT22;520;50.932;6.962;2023-05-10T01:25:18;15.80;99.90
1063;DHT22;520;50.932;6.962;2023-05-10T01:33:21;15.80;99.90
1063;DHT22;520;50.932;6.962;2023-05-10T01:39:04;15.70;99.90
1063;DHT22;520;50.932;6.962;2023-05-10T01:41:52;15.70;99.90
1063;DHT22;520;50.932;6.962;2023-05-10T01:44:35;15.70;99.90
1063;DHT22;520;50.932;6.962;2023-05-10T01:47:07;15.70;99.90
1063;DHT22;520;50.932;6.962;2023-05-10T01:49:55;15.70;99.90
1063;DHT22;520;50.932;6.962;2023-05-10T01:52:27;15.70;99.90
1063;DHT22;520;50.932;6.962;2023-05-10T01:55:07;15.70;99.90
1063;DHT22;520;50.932;6.962;2023-05-10T01:57:36;15.60;99.90
1063;DHT22;520;50.932;6.962;2023-05-10T02:00:05;15.60;99.90
1063;DHT22;520;50.932;6.962;2023-05-10T02:02:36;15.70;99.90
1063;DHT22;520;50.932;6.962;2023-05-10T02:05:05;15.70;99.90
1063;DHT22;520;50.932;6.962;2023-05-10T02:07:35;15.70;99.90
1063;DHT22;520;50.932;6.962;2023-05-10T02:10:04;15.70;99.90
1063;DHT22;520;50.932;6.962;2023-05-10T02:12:35;15.70;99.90
1063;DHT22;520;50.932;6.962;2023-05-10T02:15:04;15.70;99.90
1063;DHT22;520;50.932;6.962;2023-05-10T02:17:32;15.70;99.90
1063;DHT22;520;50.932;6.962;2023-05-10T02:20:02;15.70;99.90
1063;DHT22;520;50.932;6.962;2023-05-10T02:22:30;15.70;99.90
1063;DHT22;520;50.932;6.962;2023-05-10T02:25:01;15.60;99.90
1063;DHT22;520;50.932;6.962;2023-05-10T02:27:31;15.70;99.90
1063;DHT22;520;50.932;6.962;2023-05-10T02:30:08;15.70;99.90
1063;DHT22;520;50.932;6.962;2023-05-10T02:32:41;15.60;99.90
1063;DHT22;520;50.932;6.962;2023-05-10T02:35:18;15.60;99.90
1063;DHT22;520;50.932;6.962;2023-05-10T02:37:57;15.60;99.90
1063;DHT22;520;50.932;6.962;2023-05-10T02:40:42;15.60;99.90
1063;DHT22;520;50.932;6.962;2023-05-10T02:43:21;15.60;99.90
1063;DHT22;520;50.932;6.962;2023-05-10T02:45:51;15.60;99.90
1063;DHT22;520;50.932;6.962;2023-05-10T02:48:21;15.50;99.90
1063;DHT22;520;50.932;6.962;2023-05-10T02:51:07;15.50;99.90
1063;DHT22;520;50.932;6.962;2023-05-10T02:53:38;15.50;99.90
1063;DHT22;520;50.932;6.962;2023-05-10T02:56:11;15.50;99.90
1063;DHT22;520;50.932;6.962;2023-05-10T02:59:04;15.50;99.90
1063;DHT22;520;50.932;6.962;2023-05-10T03:01:33;15.50;99.90
1063;DHT22;520;50.932;6.962;2023-05-10T03:04:01;15.50;99.90
1063;DHT22;520;50.932;6.962;2023-05-10T03:06:28;15.50;99.90
1063;DHT22;520;50.932;6.962;2023-05-10T03:08:58;15.50;99.90
1063;DHT22;520;50.932;6.962;2023-05-10T03:11:43;15.50;99.90
1063;DHT22;520;50.932;6.962;2023-05-10T03:17:33;15.40;99.90
1063;DHT22;520;50.932;6.962;2023-05-10T03:20:18;15.40;99.90
1063;DHT22;520;50.932;6.962;2023-05-10T03:23:07;15.50;99.90
1063;DHT22;520;50.932;6.962;2023-05-10T03:25:52;15.50;99.90
1063;DHT22;520;50.932;6.962;2023-05-10T03:28:28;15.50;99.90
1063;DHT22;520;50.932;6.962;2023-05-10T03:31:02;15.50;99.90
1063;DHT22;520;50.932;6.962;2023-05-10T03:33:45;15.50;99.90
1063;DHT22;520;50.932;6.962;2023-05-10T03:36:14;15.50;99.90
1063;DHT22;520;50.932;6.962;2023-05-10T03:38:43;15.50;99.90
1063;DHT22;520;50.932;6.962;2023-05-10T03:41:18;15.50;99.90
1063;DHT22;520;50.932;6.962;2023-05-10T03:43:53;15.50;99.90
1063;DHT22;520;50.932;6.962;2023-05-10T03:46:23;15.50;99.90
1063;DHT22;520;50.932;6.962;2023-05-10T03:48:50;15.50;99.90
1063;DHT22;520;50.932;6.962;2023-05-10T03:51:17;15.50;99.90
1063;DHT22;520;50.932;6.962;2023-05-10T03:53:49;15.50;99.90
1063;DHT22;520;50.932;6.962;2023-05-10T03:56:16;15.40;99.90
1063;DHT22;520;50.932;6.962;2023-05-10T03:58:43;15.50;99.90
1063;DHT22;520;50.932;6.962;2023-05-10T04:01:09;15.50;99.90
1063;DHT22;520;50.932;6.962;2023-05-10T04:03:36;15.50;99.90
1063;DHT22;520;50.932;6.962;2023-05-10T04:06:03;15.50;99.90
1063;DHT22;520;50.932;6.962;2023-05-10T04:08:31;15.50;99.90
1063;DHT22;520;50.932;6.962;2023-05-10T04:11:08;15.50;99.90
1063;DHT22;520;50.932;6.962;2023-05-10T04:13:36;15.50;99.90
1063;DHT22;520;50.932;6.962;2023-05-10T04:16:03;15.50;99.90
1063;DHT22;520;50.932;6.962;2023-05-10T04:18:30;15.50;99.90
1063;DHT22;520;50.932;6.962;2023-05-10T04:20:58;15.50;99.90
1063;DHT22;520;50.932;6.962;2023-05-10T04:23:24;15.50;99.90
1063;DHT22;520;50.932;6.962;2023-05-10T04:25:51;15.50;99.90
1063;DHT22;520;50.932;6.962;2023-05-10T04:28:17;15.50;99.90
1063;DHT22;520;50.932;6.962;2023-05-10T04:30:44;15.50;99.90
1063;DHT22;520;50.932;6.962;2023-05-10T04:33:11;15.50;99.90
1063;DHT22;520;50.932;6.962;2023-05-10T04:35:37;15.50;99.90
1063;DHT22;520;50.932;6.962;2023-05-10T04:38:05;15.40;99.90
1063;DHT22;520;50.932;6.962;2023-05-10T04:40:31;15.40;99.90
1063;DHT22;520;50.932;6.962;2023-05-10T04:42:58;15.40;99.90
1063;DHT22;520;50.932;6.962;2023-05-10T04:45:25;15.40;99.90
1063;DHT22;520;50.932;6.962;2023-05-10T04:47:52;15.40;99.90
1063;DHT22;520;50.932;6.962;2023-05-10T04:50:19;15.40;99.90
1063;DHT22;520;50.932;6.962;2023-05-10T04:52:45;15.40;99.90
1063;DHT22;520;50.932;6.962;2023-05-10T04:55:12;15.40;99.90
1063;DHT22;520;50.932;6.962;2023-05-10T04:57:40;15.40;99.90
1063;DHT22;520;50.932;6.962;2023-05-10T05:00:07;15.40;99.90
1063;DHT22;520;50.932;6.962;2023-05-10T05:02:34;15.40;99.90
1063;DHT22;520;50.932;6.962;2023-05-10T05:05:00;15.40;99.90
1063;DHT22;520;50.932;6.962;2023-05-10T05:07:27;15.40;99.90
1063;DHT22;520;50.932;6.962;2023-05-10T05:09:54;15.40;99.90
1063;DHT22;520;50.932;6.962;2023-05-10T05:12:21;15.50;99.90
1063;DHT22;520;50.932;6.962;2023-05-10T05:14:48;15.50;99.90
1063;DHT22;520;50.932;6.962;2023-05-10T05:17:15;15.50;99.90
1063;DHT22;520;50.932;6.962;2023-05-10T05:19:42;15.50;99.90
1063;DHT22;520;50.932;6.962;2023-05-10T05:22:09;15.50;99.90
1063;DHT22;520;50.932;6.962;2023-05-10T05:24:36;15.50;99.90
1063;DHT22;520;50.932;6.962;2023-05-10T05:27:07;15.50;99.90
1063;DHT22;520;50.932;6.962;2023-05-10T05:29:34;15.50;99.90
1063;DHT22;520;50.932;6.962;2023-05-10T05:32:01;15.50;99.90
1063;DHT22;520;50.932;6.962;2023-05-10T05:34:28;15.50;99.90
1063;DHT22;520;50.932;6.962;2023-05-10T05:36:55;15.50;99.90
1063;DHT22;520;50.932;6.962;2023-05-10T05:39:22;15.50;99.90
1063;DHT22;520;50.932;6.962;2023-05-10T05:41:52;15.50;99.90
1063;DHT22;520;50.932;6.962;2023-05-10T05:44:19;15.50;99.90
1063;DHT22;520;50.932;6.962;2023-05-10T05:46:47;15.50;99.90
1063;DHT22;520;50.932;6.962;2023-05-10T05:49:14;15.50;99.90
1063;DHT22;520;50.932;6.962;2023-05-10T05:51:41;15.50;99.90
1063;DHT22;520;50.932;6.962;2023-05-10T05:54:08;15.50;99.90
1063;DHT22;520;50.932;6.962;2023-05-10T05:56:35;15.50;99.90
1063;DHT22;520;50.932;6.962;2023-05-10T05:59:02;15.60;99.90
1063;DHT22;520;50.932;6.962;2023-05-10T06:01:30;15.60;99.90
1063;DHT22;520;50.932;6.962;2023-05-10T06:03:59;15.60;99.90
1063;DHT22;520;50.932;6.962;2023-05-10T06:06:27;15.60;99.90
1063;DHT22;520;50.932;6.962;2023-05-10T06:08:55;15.60;99.90
1063;DHT22;520;50.932;6.962;2023-05-10T06:11:22;15.70;99.90
1063;DHT22;520;50.932;6.962;2023-05-10T06:13:49;15.70;99.90
1063;DHT22;520;50.932;6.962;2023-05-10T06:16:17;15.70;99.90
1063;DHT22;520;50.932;6.962;2023-05-10T06:18:44;15.70;99.90
1063;DHT22;520;50.932;6.962;2023-05-10T06:21:11;15.60;99.90
1063;DHT22;520;50.932;6.962;2023-05-10T06:23:38;15.70;99.90
1063;DHT22;520;50.932;6.962;2023-05-10T06:26:04;15.60;99.90
1063;DHT22;520;50.932;6.962;2023-05-10T06:28:31;15.70;99.90
1063;DHT22;520;50.932;6.962;2023-05-10T06:31:00;15.70;99.90
1063;DHT22;520;50.932;6.962;2023-05-10T06:33:26;15.60;99.90
1063;DHT22;520;50.932;6.962;2023-05-10T06:35:54;15.70;99.90
1063;DHT22;520;50.932;6.962;2023-05-10T06:38:21;15.60;99.90
1063;DHT22;520;50.932;6.962;2023-05-10T06:40:48;15.60;99.90
1063;DHT22;520;50.932;6.962;2023-05-10T06:43:18;15.70;99.90
1063;DHT22;520;50.932;6.962;2023-05-10T06:45:45;15.60;99.90
1063;DHT22;520;50.932;6.962;2023-05-10T06:48:14;15.70;99.90
1063;DHT22;520;50.932;6.962;2023-05-10T06:50:40;15.70;99.90
1063;DHT22;520;50.932;6.962;2023-05-10T06:53:07;15.70;99.90
1063;DHT22;520;50.932;6.962;2023-05-10T06:55:34;15.60;99.90
1063;DHT22;520;50.932;6.962;2023-05-10T06:58:01;15.70;99.90
1063;DHT22;520;50.932;6.962;2023-05-10T07:03:58;15.60;99.90
1063;DHT22;520;50.932;6.962;2023-05-10T07:06:43;15.50;99.90
1063;DHT22;520;50.932;6.962;2023-05-10T07:09:27;15.50;99.90
1063;DHT22;520;50.932;6.962;2023-05-10T07:11:57;15.60;99.90
1063;DHT22;520;50.932;6.962;2023-05-10T07:14:30;15.60;99.90
1063;DHT22;520;50.932;6.962;2023-05-10T07:17:17;15.60;99.90
1063;DHT22;520;50.932;6.962;2023-05-10T07:20:20;15.70;99.90
1063;DHT22;520;50.932;6.962;2023-05-10T07:23:26;15.60;99.90
1063;DHT22;520;50.932;6.962;2023-05-10T07:26:07;15.90;99.90
1063;DHT22;520;50.932;6.962;2023-05-10T07:28:48;15.80;99.90
1063;DHT22;520;50.932;6.962;2023-05-10T07:31:31;15.80;99.90
1063;DHT22;520;50.932;6.962;2023-05-10T07:34:20;15.70;99.90
1063;DHT22;520;50.932;6.962;2023-05-10T07:36:59;15.70;99.90
1063;DHT22;520;50.932;6.962;2023-05-10T07:39:40;15.70;99.90
1063;DHT22;520;50.932;6.962;2023-05-10T07:42:12;15.70;99.90
1063;DHT22;520;50.932;6.962;2023-05-10T07:44:54;15.80;99.90
1063;DHT22;520;50.932;6.962;2023-05-10T07:47:51;15.70;99.90
1063;DHT22;520;50.932;6.962;2023-05-10T07:50:27;15.70;99.90
1063;DHT22;520;50.932;6.962;2023-05-10T07:53:13;15.70;99.90
1063;DHT22;520;50.932;6.962;2023-05-10T07:55:42;15.70;99.90
1063;DHT22;520;50.932;6.962;2023-05-10T07:58:51;15.80;99.90
1063;DHT22;520;50.932;6.962;2023-05-10T08:01:42;15.80;99.90
1063;DHT22;520;50.932;6.962;2023-05-10T08:04:40;15.80;99.90
1063;DHT22;520;50.932;6.962;2023-05-10T08:07:16;15.70;99.90
1063;DHT22;520;50.932;6.962;2023-05-10T08:10:15;15.80;99.90
1063;DHT22;520;50.932;6.962;2023-05-10T08:13:07;15.90;99.90
1063;DHT22;520;50.932;6.962;2023-05-10T08:16:18;15.90;99.90
1063;DHT22;520;50.932;6.962;2023-05-10T08:18:49;16.00;99.90
1063;DHT22;520;50.932;6.962;2023-05-10T08:21:44;16.00;99.90
1063;DHT22;520;50.932;6.962;2023-05-10T08:24:29;16.00;99.90
1063;DHT22;520;50.932;6.962;2023-05-10T08:27:35;16.00;99.90
1063;DHT22;520;50.932;6.962;2023-05-10T08:30:17;16.10;99.90
1063;DHT22;520;50.932;6.962;2023-05-10T08:33:00;16.10;99.90
1063;DHT22;520;50.932;6.962;2023-05-10T08:35:35;16.20;99.90
1063;DHT22;520;50.932;6.962;2023-05-10T08:38:26;16.20;99.90
1063;DHT22;520;50.932;6.962;2023-05-10T08:40:58;16.20;99.90
1063;DHT22;520;50.932;6.962;2023-05-10T08:43:52;16.30;99.90
1063;DHT22;520;50.932;6.962;2023-05-10T08:49:42;16.20;99.90
1063;DHT22;520;50.932;6.962;2023-05-10T08:52:35;16.10;99.90
1063;DHT22;520;50.932;6.962;2023-05-10T08:55:24;16.00;99.90
1063;DHT22;520;50.932;6.962;2023-05-10T08:57:59;16.00;99.90
1063;DHT22;520;50.932;6.962;2023-05-10T09:00:42;15.90;99.90
1063;DHT22;520;50.932;6.962;2023-05-10T09:03:20;16.00;99.90
1063;DHT22;520;50.932;6.962;2023-05-10T09:05:59;16.00;99.90
1063;DHT22;520;50.932;6.962;2023-05-10T09:08:51;16.00;99.90
1063;DHT22;520;50.932;6.962;2023-05-10T09:11:58;16.10;99.90
1063;DHT22;520;50.932;6.962;2023-05-10T09:14:35;16.10;99.90
1063;DHT22;520;50.932;6.962;2023-05-10T09:17:16;16.10;99.90
1063;DHT22;520;50.932;6.962;2023-05-10T09:19:58;16.30;99.90
1063;DHT22;520;50.932;6.962;2023-05-10T09:22:41;16.40;99.90
1063;DHT22;520;50.932;6.962;2023-05-10T09:25:33;16.50;99.90
1063;DHT22;520;50.932;6.962;2023-05-10T09:28:22;16.60;99.90
1063;DHT22;520;50.932;6.962;2023-05-10T09:33:54;16.80;99.90
1063;DHT22;520;50.932;6.962;2023-05-10T09:36:29;17.00;99.90
1063;DHT22;520;50.932;6.962;2023-05-10T09:39:04;17.00;99.90
1063;DHT22;520;50.932;6.962;2023-05-10T09:41:41;17.00;99.90
1063;DHT22;520;50.932;6.962;2023-05-10T09:44:17;16.80;99.90
1063;DHT22;520;50.932;6.962;2023-05-10T09:47:17;16.50;99.90
1063;DHT22;520;50.932;6.962;2023-05-10T09:50:05;16.30;99.90
1063;DHT22;520;50.932;6.962;2023-05-10T09:52:55;16.10;99.90
1063;DHT22;520;50.932;6.962;2023-05-10T09:55:51;15.90;99.90
1063;DHT22;520;50.932;6.962;2023-05-10T09:58:36;15.80;99.90
1063;DHT22;520;50.932;6.962;2023-05-10T10:01:57;15.90;99.90
1063;DHT22;520;50.932;6.962;2023-05-10T10:04:48;15.80;99.90
1063;DHT22;520;50.932;6.962;2023-05-10T10:07:48;16.00;99.90
1063;DHT22;520;50.932;6.962;2023-05-10T10:10:36;16.10;99.90
1063;DHT22;520;50.932;6.962;2023-05-10T10:13:21;16.50;99.90
1063;DHT22;520;50.932;6.962;2023-05-10T10:16:17;16.80;99.90
1063;DHT22;520;50.932;6.962;2023-05-10T10:18:51;17.10;99.90
1063;DHT22;520;50.932;6.962;2023-05-10T10:21:38;17.20;99.90
1063;DHT22;520;50.932;6.962;2023-05-10T10:24:19;17.30;99.90
1063;DHT22;520;50.932;6.962;2023-05-10T10:27:22;17.40;99.90
1063;DHT22;520;50.932;6.962;2023-05-10T10:30:47;17.50;99.90
1063;DHT22;520;50.932;6.962;2023-05-10T10:33:59;17.70;99.90
1063;DHT22;520;50.932;6.962;2023-05-10T10:36:33;18.10;99.90
1063;DHT22;520;50.932;6.962;2023-05-10T10:39:25;18.40;99.60
1063;DHT22;520;50.932;6.962;2023-05-10T10:42:11;19.00;99.20
1063;DHT22;520;50.932;6.962;2023-05-10T10:45:14;19.40;97.70
1063;DHT22;520;50.932;6.962;2023-05-10T10:48:25;19.40;96.60
1063;DHT22;520;50.932;6.962;2023-05-10T10:51:31;19.30;96.50
1063;DHT22;520;50.932;6.962;2023-05-10T10:54:11;19.20;96.40
1063;DHT22;520;50.932;6.962;2023-05-10T10:57:20;19.20;96.70
1063;DHT22;520;50.932;6.962;2023-05-10T11:06:43;19.00;96.60
1063;DHT22;520;50.932;6.962;2023-05-10T11:09:29;19.20;96.20
1063;DHT22;520;50.932;6.962;2023-05-10T11:12:09;19.40;96.50
1063;DHT22;520;50.932;6.962;2023-05-10T11:14:50;19.30;96.40
1063;DHT22;520;50.932;6.962;2023-05-10T11:17:25;19.10;96.10
1063;DHT22;520;50.932;6.962;2023-05-10T11:22:56;18.60;96.50
1063;DHT22;520;50.932;6.962;2023-05-10T11:25:49;18.70;97.30
1063;DHT22;520;50.932;6.962;2023-05-10T11:28:48;18.60;97.60
1063;DHT22;520;50.932;6.962;2023-05-10T11:34:49;18.30;97.20
1063;DHT22;520;50.932;6.962;2023-05-10T11:37:41;18.10;97.20
1063;DHT22;520;50.932;6.962;2023-05-10T11:40:17;18.00;97.60
1063;DHT22;520;50.932;6.962;2023-05-10T11:42:46;18.10;97.80
1063;DHT22;520;50.932;6.962;2023-05-10T11:45:33;18.10;97.80
1063;DHT22;520;50.932;6.962;2023-05-10T11:48:03;18.20;97.90
1063;DHT22;520;50.932;6.962;2023-05-10T11:50:35;18.10;97.70
1063;DHT22;520;50.932;6.962;2023-05-10T11:53:13;18.10;97.30
1063;DHT22;520;50.932;6.962;2023-05-10T11:58:44;17.80;96.70
1063;DHT22;520;50.932;6.962;2023-05-10T12:01:45;17.70;96.80
1063;DHT22;520;50.932;6.962;2023-05-10T12:04:19;17.80;96.80
1063;DHT22;520;50.932;6.962;2023-05-10T12:07:12;17.80;96.80
1063;DHT22;520;50.932;6.962;2023-05-10T12:09:44;17.90;96.70
1063;DHT22;520;50.932;6.962;2023-05-10T12:12:47;18.00;96.20
1063;DHT22;520;50.932;6.962;2023-05-10T12:15:30;18.10;96.30
1063;DHT22;520;50.932;6.962;2023-05-10T12:18:26;18.10;95.90
1063;DHT22;520;50.932;6.962;2023-05-10T12:21:06;18.10;95.80
1063;DHT22;520;50.932;6.962;2023-05-10T12:23:40;18.30;95.90
1063;DHT22;520;50.932;6.962;2023-05-10T12:26:32;18.30;95.80
1063;DHT22;520;50.932;6.962;2023-05-10T12:29:21;18.40;95.10
1063;DHT22;520;50.932;6.962;2023-05-10T12:35:52;18.70;94.40
1063;DHT22;520;50.932;6.962;2023-05-10T12:38:44;18.90;94.10
1063;DHT22;520;50.932;6.962;2023-05-10T12:41:23;19.20;94.20
1063;DHT22;520;50.932;6.962;2023-05-10T12:44:07;19.40;93.60
1063;DHT22;520;50.932;6.962;2023-05-10T12:46:43;19.40;92.90
1063;DHT22;520;50.932;6.962;2023-05-10T12:49:10;19.30;92.60
1063;DHT22;520;50.932;6.962;2023-05-10T12:51:36;19.20;93.10
1063;DHT22;520;50.932;6.962;2023-05-10T12:54:03;19.30;93.10
1063;DHT22;520;50.932;6.962;2023-05-10T12:56:30;19.70;92.50
1063;DHT22;520;50.932;6.962;2023-05-10T12:58:57;19.90;91.80
1063;DHT22;520;50.932;6.962;2023-05-10T13:01:23;19.90;91.10
1063;DHT22;520;50.932;6.962;2023-05-10T13:03:50;19.90;91.10
1063;DHT22;520;50.932;6.962;2023-05-10T13:06:20;20.20;91.00
1063;DHT22;520;50.932;6.962;2023-05-10T13:08:47;20.60;90.80
1063;DHT22;520;50.932;6.962;2023-05-10T13:11:13;20.70;90.20
1063;DHT22;520;50.932;6.962;2023-05-10T13:13:42;20.70;89.90
1063;DHT22;520;50.932;6.962;2023-05-10T13:16:09;20.70;89.50
1063;DHT22;520;50.932;6.962;2023-05-10T13:18:36;20.70;87.90
1063;DHT22;520;50.932;6.962;2023-05-10T13:21:03;20.90;87.80
1063;DHT22;520;50.932;6.962;2023-05-10T13:23:31;21.00;86.40
1063;DHT22;520;50.932;6.962;2023-05-10T13:25:58;20.90;85.70
1063;DHT22;520;50.932;6.962;2023-05-10T13:28:25;21.00;86.10
1063;DHT22;520;50.932;6.962;2023-05-10T13:30:52;21.00;85.40
1063;DHT22;520;50.932;6.962;2023-05-10T13:33:19;20.90;85.60
1063;DHT22;520;50.932;6.962;2023-05-10T13:35:46;20.90;86.30
1063;DHT22;520;50.932;6.962;2023-05-10T13:38:12;20.70;87.50
1063;DHT22;520;50.932;6.962;2023-05-10T13:40:40;20.50;87.40
1063;DHT22;520;50.932;6.962;2023-05-10T13:43:07;20.40;85.80
1063;DHT22;520;50.932;6.962;2023-05-10T13:45:34;20.20;86.00
1063;DHT22;520;50.932;6.962;2023-05-10T13:48:01;20.20;86.90
1063;DHT22;520;50.932;6.962;2023-05-10T13:50:28;20.20;87.70
1063;DHT22;520;50.932;6.962;2023-05-10T13:52:55;20.30;88.20
1063;DHT22;520;50.932;6.962;2023-05-10T13:55:22;20.30;87.70
1063;DHT22;520;50.932;6.962;2023-05-10T13:58:06;20.20;87.30
1063;DHT22;520;50.932;6.962;2023-05-10T14:00:32;20.10;88.30
1063;DHT22;520;50.932;6.962;2023-05-10T14:02:59;20.30;87.70
1063;DHT22;520;50.932;6.962;2023-05-10T14:05:26;20.30;87.40
1063;DHT22;520;50.932;6.962;2023-05-10T14:07:53;20.30;87.50
1063;DHT22;520;50.932;6.962;2023-05-10T14:10:21;20.30;87.30
1063;DHT22;520;50.932;6.962;2023-05-10T14:12:48;20.50;87.00
1063;DHT22;520;50.932;6.962;2023-05-10T14:15:14;20.60;86.40
1063;DHT22;520;50.932;6.962;2023-05-10T14:17:42;20.50;85.80
1063;DHT22;520;50.932;6.962;2023-05-10T14:20:09;20.40;86.60
1063;DHT22;520;50.932;6.962;2023-05-10T14:22:35;20.40;86.70
1063;DHT22;520;50.932;6.962;2023-05-10T14:25:03;20.40;87.50
1063;DHT22;520;50.932;6.962;2023-05-10T14:27:32;20.60;87.20
1063;DHT22;520;50.932;6.962;2023-05-10T14:30:14;20.70;86.10
1063;DHT22;520;50.932;6.962;2023-05-10T14:32:57;20.60;86.00
1063;DHT22;520;50.932;6.962;2023-05-10T14:35:30;20.60;86.40
1063;DHT22;520;50.932;6.962;2023-05-10T14:37:59;20.50;85.60
1063;DHT22;520;50.932;6.962;2023-05-10T14:40:42;20.50;85.50
1063;DHT22;520;50.932;6.962;2023-05-10T14:43:18;20.40;85.80
1063;DHT22;520;50.932;6.962;2023-05-10T14:45:50;20.30;85.20
1063;DHT22;520;50.932;6.962;2023-05-10T14:48:22;20.30;85.70
1063;DHT22;520;50.932;6.962;2023-05-10T14:51:11;20.10;86.30
1063;DHT22;520;50.932;6.962;2023-05-10T14:53:57;20.00;86.50
1063;DHT22;520;50.932;6.962;2023-05-10T14:56:46;20.00;87.80
1063;DHT22;520;50.932;6.962;2023-05-10T14:59:28;20.00;86.60
1063;DHT22;520;50.932;6.962;2023-05-10T15:01:59;20.00;86.40
1063;DHT22;520;50.932;6.962;2023-05-10T15:04:31;20.10;86.70
1063;DHT22;520;50.932;6.962;2023-05-10T15:07:15;20.00;86.00
1063;DHT22;520;50.932;6.962;2023-05-10T15:10:02;20.20;86.40
1063;DHT22;520;50.932;6.962;2023-05-10T15:12:36;20.30;86.10
1063;DHT22;520;50.932;6.962;2023-05-10T15:15:06;20.40;86.80
1063;DHT22;520;50.932;6.962;2023-05-10T15:17:50;20.50;85.10
1063;DHT22;520;50.932;6.962;2023-05-10T15:20:26;20.40;83.70
1063;DHT22;520;50.932;6.962;2023-05-10T15:22:57;20.30;84.40
1063;DHT22;520;50.932;6.962;2023-05-10T15:25:57;20.30;84.50
1063;DHT22;520;50.932;6.962;2023-05-10T15:28:47;20.30;86.40
1063;DHT22;520;50.932;6.962;2023-05-10T15:31:18;20.50;87.30
1063;DHT22;520;50.932;6.962;2023-05-10T15:33:51;20.50;87.60
1063;DHT22;520;50.932;6.962;2023-05-10T15:36:25;20.50;86.70
1063;DHT22;520;50.932;6.962;2023-05-10T15:38:59;20.50;85.60
1063;DHT22;520;50.932;6.962;2023-05-10T15:41:40;20.50;85.40
1063;DHT22;520;50.932;6.962;2023-05-10T15:44:30;20.50;85.10
1063;DHT22;520;50.932;6.962;2023-05-10T15:47:15;20.50;83.80
1063;DHT22;520;50.932;6.962;2023-05-10T15:49:47;20.90;82.50
1063;DHT22;520;50.932;6.962;2023-05-10T15:52:25;20.80;81.90
1063;DHT22;520;50.932;6.962;2023-05-10T15:55:04;20.60;82.90
1063;DHT22;520;50.932;6.962;2023-05-10T15:57:49;20.60;83.50
1063;DHT22;520;50.932;6.962;2023-05-10T16:00:17;20.60;84.70
1063;DHT22;520;50.932;6.962;2023-05-10T16:02:58;20.60;83.70
1063;DHT22;520;50.932;6.962;2023-05-10T16:05:34;20.50;84.10
1063;DHT22;520;50.932;6.962;2023-05-10T16:08:03;20.40;84.30
1063;DHT22;520;50.932;6.962;2023-05-10T16:10:32;20.30;84.30
1063;DHT22;520;50.932;6.962;2023-05-10T16:13:15;20.30;85.40
1063;DHT22;520;50.932;6.962;2023-05-10T16:15:53;20.40;85.80
1063;DHT22;520;50.932;6.962;2023-05-10T16:18:30;20.50;84.70
1063;DHT22;520;50.932;6.962;2023-05-10T16:21:00;20.30;85.80
1063;DHT22;520;50.932;6.962;2023-05-10T16:23:33;20.20;86.40
1063;DHT22;520;50.932;6.962;2023-05-10T16:26:05;20.20;88.40
1063;DHT22;520;50.932;6.962;2023-05-10T16:28:36;20.20;88.50
1063;DHT22;520;50.932;6.962;2023-05-10T16:31:04;20.10;89.40
1063;DHT22;520;50.932;6.962;2023-05-10T16:33:39;20.00;90.00
1063;DHT22;520;50.932;6.962;2023-05-10T16:36:35;19.90;89.80
1063;DHT22;520;50.932;6.962;2023-05-10T16:39:04;19.70;90.00
1063;DHT22;520;50.932;6.962;2023-05-10T16:41:42;19.70;89.60
1063;DHT22;520;50.932;6.962;2023-05-10T16:44:16;19.50;89.60
1063;DHT22;520;50.932;6.962;2023-05-10T16:46:46;19.40;90.00
1063;DHT22;520;50.932;6.962;2023-05-10T16:49:21;19.40;90.00
1063;DHT22;520;50.932;6.962;2023-05-10T16:51:58;19.40;89.60
1063;DHT22;520;50.932;6.962;2023-05-10T16:54:31;19.30;89.20
1063;DHT22;520;50.932;6.962;2023-05-10T16:57:10;19.30;90.00
1063;DHT22;520;50.932;6.962;2023-05-10T16:59:40;19.40;90.00
1063;DHT22;520;50.932;6.962;2023-05-10T17:02:10;19.40;90.10
1063;DHT22;520;50.932;6.962;2023-05-10T17:04:37;19.50;90.20
1063;DHT22;520;50.932;6.962;2023-05-10T17:07:04;19.40;90.30
1063;DHT22;520;50.932;6.962;2023-05-10T17:09:34;19.50;90.60
1063;DHT22;520;50.932;6.962;2023-05-10T17:12:06;19.40;90.60
1063;DHT22;520;50.932;6.962;2023-05-10T17:14:35;19.50;90.80
1063;DHT22;520;50.932;6.962;2023-05-10T17:17:08;20.00;90.30
1063;DHT22;520;50.932;6.962;2023-05-10T17:19:51;20.30;91.60
1063;DHT22;520;50.932;6.962;2023-05-10T17:22:20;19.90;92.80
1063;DHT22;520;50.932;6.962;2023-05-10T17:25:00;19.50;93.50
1063;DHT22;520;50.932;6.962;2023-05-10T17:27:37;19.00;94.30
1063;DHT22;520;50.932;6.962;2023-05-10T17:30:12;18.90;94.90
1063;DHT22;520;50.932;6.962;2023-05-10T17:32:53;18.80;95.70
1063;DHT22;520;50.932;6.962;2023-05-10T17:35:26;18.60;96.10
1063;DHT22;520;50.932;6.962;2023-05-10T17:37:53;18.20;96.90
1063;DHT22;520;50.932;6.962;2023-05-10T17:40:22;18.20;97.80
1063;DHT22;520;50.932;6.962;2023-05-10T17:43:04;18.20;97.70
1063;DHT22;520;50.932;6.962;2023-05-10T17:45:38;18.00;97.90
1063;DHT22;520;50.932;6.962;2023-05-10T17:48:12;18.10;97.90
1063;DHT22;520;50.932;6.962;2023-05-10T17:50:44;18.10;97.70
1063;DHT22;520;50.932;6.962;2023-05-10T17:53:30;17.90;98.10
1063;DHT22;520;50.932;6.962;2023-05-10T17:56:29;17.90;98.60
1063;DHT22;520;50.932;6.962;2023-05-10T17:59:15;17.80;98.70